createdAt,value
2016-05-12T00:00:27.758Z,21.8
2016-05-12T00:01:27.808Z,21.8
2016-05-12T00:02:27.825Z,21.92
2016-05-12T00:03:27.875Z,21.92
2016-05-12T00:04:27.909Z,21.94
2016-05-12T00:05:27.958Z,21.86
2016-05-12T00:06:27.992Z,21.85
2016-05-12T00:07:28.041Z,21.93
2016-05-12T00:08:28.076Z,21.92
2016-05-12T00:09:28.125Z,21.89
2016-05-12T00:10:28.018Z,21.9
2016-05-12T00:11:28.194Z,21.89
2016-05-12T00:12:28.227Z,21.94
2016-05-12T00:13:28.121Z,21.9
2016-05-12T00:14:28.311Z,21.92
2016-05-12T00:15:28.345Z,21.96
2016-05-12T00:16:28.379Z,21.92
2016-05-12T00:17:28.428Z,21.9
2016-05-12T00:18:28.306Z,21.93
2016-05-12T00:19:28.512Z,21.85
2016-05-12T00:20:28.546Z,21.9
2016-05-12T00:21:28.595Z,21.92
2016-05-12T00:22:28.473Z,21.9
2016-05-12T00:23:28.662Z,21.9
2016-05-12T00:24:28.713Z,21.93
2016-05-12T00:25:28.748Z,21.9
2016-05-12T00:26:28.468Z,21.96
2016-05-12T00:27:28.814Z,21.9
2016-05-12T00:28:28.864Z,21.94
2016-05-12T00:29:28.913Z,21.92
2016-05-12T00:30:28.947Z,21.99
2016-05-12T00:31:28.841Z,21.94
2016-05-12T00:32:29.031Z,21.94
2016-05-12T00:33:29.065Z,21.9
2016-05-12T00:34:28.958Z,21.99
2016-05-12T00:35:29.149Z,21.92
2016-05-12T00:36:29.183Z,22.02
2016-05-12T00:37:29.216Z,21.93
2016-05-12T00:38:29.266Z,21.97
2016-05-12T00:39:29.300Z,21.92
2016-05-12T00:40:29.350Z,21.96
2016-05-12T00:41:29.383Z,21.94
2016-05-12T00:42:29.418Z,21.96
2016-05-12T00:43:29.326Z,21.93
2016-05-12T00:44:29.485Z,21.99
2016-05-12T00:45:29.534Z,21.96
2016-05-12T00:46:29.584Z,21.96
2016-05-12T00:47:29.619Z,21.92
2016-05-12T00:48:29.652Z,21.9
2016-05-12T00:49:29.718Z,22
2016-05-12T00:50:29.735Z,21.96
2016-05-12T00:51:29.629Z,21.92
2016-05-12T00:52:29.662Z,21.92
2016-05-12T00:53:29.853Z,21.92
2016-05-12T00:54:29.903Z,21.93
2016-05-12T00:55:29.937Z,21.92
2016-05-12T00:56:29.970Z,21.93
2016-05-12T00:57:30.020Z,21.93
2016-05-12T00:58:30.054Z,21.94
2016-05-12T00:59:29.932Z,21.9
2016-05-12T01:00:30.137Z,21.9
2016-05-12T01:01:30.311Z,21.96
2016-05-12T01:02:30.206Z,21.94
2016-05-12T01:03:30.256Z,21.93
2016-05-12T01:04:30.289Z,21.92
2016-05-12T01:05:30.338Z,21.85
2016-05-12T01:06:30.372Z,21.86
2016-05-12T01:07:30.266Z,21.86
2016-05-12T01:08:30.284Z,21.85
2016-05-12T01:09:30.491Z,21.86
2016-05-12T01:10:30.539Z,21.92
2016-05-12T01:11:30.574Z,21.92
2016-05-12T01:12:30.623Z,21.96
2016-05-12T01:13:30.485Z,21.86
2016-05-12T01:14:30.535Z,21.86
2016-05-12T01:15:30.725Z,21.97
2016-05-12T01:16:30.916Z,21.86
2016-05-12T01:17:30.824Z,21.86
2016-05-12T01:18:30.842Z,21.9
2016-05-12T01:19:30.892Z,21.89
2016-05-12T01:20:30.770Z,21.92
2016-05-12T01:21:30.803Z,21.9
2016-05-12T01:22:31.010Z,21.94
2016-05-12T01:23:31.043Z,21.94
2016-05-12T01:24:30.937Z,21.86
2016-05-12T01:25:30.971Z,21.96
2016-05-12T01:26:31.207Z,21.93
2016-05-12T01:27:31.210Z,21.93
2016-05-12T01:28:31.244Z,21.86
2016-05-12T01:29:31.294Z,21.92
2016-05-12T01:30:31.328Z,21.9
2016-05-12T01:31:31.800Z,21.94
2016-05-12T01:32:31.395Z,21.94
2016-05-12T01:33:31.445Z,21.97
2016-05-12T01:34:31.494Z,21.89
2016-05-12T01:35:31.528Z,21.92
2016-05-12T01:36:31.406Z,21.97
2016-05-12T01:37:31.441Z,21.93
2016-05-12T01:38:31.678Z,21.82
2016-05-12T01:39:31.680Z,21.8
2016-05-12T01:40:31.730Z,21.77
2016-05-12T01:41:31.779Z,21.8
2016-05-12T01:42:31.798Z,21.77
2016-05-12T01:43:31.878Z,21.94
2016-05-12T01:44:31.880Z,21.82
2016-05-12T01:45:31.915Z,21.9
2016-05-12T01:46:32.105Z,21.85
2016-05-12T01:47:31.999Z,21.82
2016-05-12T01:48:32.048Z,21.92
2016-05-12T01:49:32.082Z,21.8
2016-05-12T01:50:32.116Z,21.77
2016-05-12T01:51:32.165Z,21.85
2016-05-12T01:52:32.199Z,21.9
2016-05-12T01:53:32.249Z,21.8
2016-05-12T01:54:32.126Z,21.86
2016-05-12T01:55:32.317Z,21.8
2016-05-12T01:56:32.382Z,21.83
2016-05-12T01:57:32.401Z,21.78
2016-05-12T01:58:32.434Z,21.85
2016-05-12T01:59:32.328Z,21.9
2016-05-12T02:00:32.534Z,21.85
2016-05-12T02:01:32.567Z,21.85
2016-05-12T02:02:32.600Z,21.73
2016-05-12T02:03:32.650Z,21.86
2016-05-12T02:04:32.670Z,21.85
2016-05-12T02:05:32.719Z,21.85
2016-05-12T02:06:32.768Z,21.8
2016-05-12T02:07:32.802Z,21.71
2016-05-12T02:08:32.836Z,21.86
2016-05-12T02:09:32.870Z,21.8
2016-05-12T02:10:32.919Z,21.68
2016-05-12T02:11:32.953Z,21.8
2016-05-12T02:12:32.988Z,21.76
2016-05-12T02:13:33.021Z,21.76
2016-05-12T02:14:33.071Z,21.73
2016-05-12T02:15:33.105Z,21.71
2016-05-12T02:16:33.138Z,21.76
2016-05-12T02:17:33.033Z,21.73
2016-05-12T02:18:33.222Z,21.76
2016-05-12T02:19:33.271Z,21.76
2016-05-12T02:20:33.307Z,21.76
2016-05-12T02:21:33.340Z,21.73
2016-05-12T02:22:33.390Z,21.76
2016-05-12T02:23:33.423Z,21.74
2016-05-12T02:24:33.473Z,21.74
2016-05-12T02:25:33.366Z,21.74
2016-05-12T02:26:33.385Z,21.77
2016-05-12T02:27:33.590Z,21.71
2016-05-12T02:28:33.624Z,21.8
2016-05-12T02:29:33.658Z,21.68
2016-05-12T02:30:33.692Z,21.77
2016-05-12T02:31:33.898Z,21.77
2016-05-12T02:32:33.792Z,21.74
2016-05-12T02:33:33.826Z,21.73
2016-05-12T02:34:34.015Z,21.77
2016-05-12T02:35:33.892Z,21.78
2016-05-12T02:36:33.943Z,21.76
2016-05-12T02:37:33.992Z,21.76
2016-05-12T02:38:34.041Z,21.78
2016-05-12T02:39:34.108Z,21.76
2016-05-12T02:40:34.110Z,21.77
2016-05-12T02:41:34.144Z,21.74
2016-05-12T02:42:34.209Z,21.68
2016-05-12T02:43:34.227Z,21.77
2016-05-12T02:44:34.261Z,21.77
2016-05-12T02:45:34.138Z,21.78
2016-05-12T02:46:34.376Z,21.77
2016-05-12T02:47:34.379Z,21.76
2016-05-12T02:48:34.428Z,21.89
2016-05-12T02:49:34.462Z,21.76
2016-05-12T02:50:34.496Z,21.76
2016-05-12T02:51:34.546Z,21.74
2016-05-12T02:52:34.564Z,21.76
2016-05-12T02:53:34.473Z,21.82
2016-05-12T02:54:34.663Z,21.77
2016-05-12T02:55:34.696Z,21.71
2016-05-12T02:56:34.731Z,21.67
2016-05-12T02:57:34.764Z,21.67
2016-05-12T02:58:34.814Z,21.76
2016-05-12T02:59:34.849Z,21.71
2016-05-12T03:00:34.898Z,21.66
2016-05-12T03:01:35.260Z,21.67
2016-05-12T03:02:34.965Z,21.77
2016-05-12T03:03:35.000Z,21.74
2016-05-12T03:04:35.049Z,21.77
2016-05-12T03:05:34.943Z,21.67
2016-05-12T03:06:35.133Z,21.7
2016-05-12T03:07:35.183Z,21.68
2016-05-12T03:08:35.200Z,21.71
2016-05-12T03:09:35.250Z,21.76
2016-05-12T03:10:35.284Z,21.77
2016-05-12T03:11:35.319Z,21.77
2016-05-12T03:12:35.367Z,21.67
2016-05-12T03:13:35.402Z,21.77
2016-05-12T03:14:35.452Z,21.78
2016-05-12T03:15:35.485Z,21.74
2016-05-12T03:16:35.644Z,21.77
2016-05-12T03:17:35.412Z,21.73
2016-05-12T03:18:35.603Z,21.76
2016-05-12T03:19:35.480Z,21.71
2016-05-12T03:20:35.530Z,21.71
2016-05-12T03:21:35.564Z,21.7
2016-05-12T03:22:35.598Z,21.76
2016-05-12T03:23:35.803Z,21.74
2016-05-12T03:24:35.837Z,21.73
2016-05-12T03:25:35.887Z,21.73
2016-05-12T03:26:35.921Z,21.73
2016-05-12T03:27:35.954Z,21.83
2016-05-12T03:28:36.004Z,21.8
2016-05-12T03:29:36.038Z,21.74
2016-05-12T03:30:35.915Z,21.71
2016-05-12T03:31:36.184Z,21.8
2016-05-12T03:32:36.015Z,21.83
2016-05-12T03:33:35.878Z,21.74
2016-05-12T03:34:36.239Z,21.83
2016-05-12T03:35:36.117Z,21.86
2016-05-12T03:36:36.166Z,21.85
2016-05-12T03:37:36.356Z,21.89
2016-05-12T03:38:36.391Z,21.89
2016-05-12T03:39:36.440Z,21.77
2016-05-12T03:40:36.475Z,21.85
2016-05-12T03:41:36.508Z,21.8
2016-05-12T03:42:36.557Z,21.78
2016-05-12T03:43:36.591Z,21.78
2016-05-12T03:44:36.469Z,21.85
2016-05-12T03:45:36.660Z,21.89
2016-05-12T03:46:37.474Z,22
2016-05-12T03:47:36.743Z,21.77
2016-05-12T03:48:36.636Z,21.89
2016-05-12T03:49:36.827Z,21.9
2016-05-12T03:50:36.876Z,21.8
2016-05-12T03:51:36.910Z,21.96
2016-05-12T03:52:36.788Z,21.9
2016-05-12T03:53:36.994Z,21.92
2016-05-12T03:54:37.027Z,21.92
2016-05-12T03:55:36.921Z,21.92
2016-05-12T03:56:37.142Z,21.9
2016-05-12T03:57:37.145Z,21.92
2016-05-12T03:58:37.179Z,21.92
2016-05-12T03:59:36.916Z,21.9
2016-05-12T04:00:37.263Z,21.89
2016-05-12T04:01:37.312Z,21.85
2016-05-12T04:02:37.346Z,21.92
2016-05-12T04:03:37.395Z,21.89
2016-05-12T04:04:37.414Z,21.86
2016-05-12T04:05:37.464Z,21.96
2016-05-12T04:06:37.498Z,21.85
2016-05-12T04:07:37.375Z,21.85
2016-05-12T04:08:37.440Z,21.89
2016-05-12T04:09:37.614Z,21.85
2016-05-12T04:10:37.664Z,21.92
2016-05-12T04:11:37.698Z,21.92
2016-05-12T04:12:37.733Z,21.85
2016-05-12T04:13:37.625Z,21.92
2016-05-12T04:14:37.831Z,21.92
2016-05-12T04:15:37.708Z,21.89
2016-05-12T04:16:37.914Z,21.92
2016-05-12T04:17:37.949Z,21.85
2016-05-12T04:18:37.982Z,21.99
2016-05-12T04:19:38.017Z,21.93
2016-05-12T04:20:38.050Z,21.92
2016-05-12T04:21:38.085Z,21.9
2016-05-12T04:22:38.134Z,21.99
2016-05-12T04:23:38.183Z,21.94
2016-05-12T04:24:38.217Z,21.92
2016-05-12T04:25:38.251Z,21.94
2016-05-12T04:26:38.285Z,21.93
2016-05-12T04:27:38.335Z,21.93
2016-05-12T04:28:38.384Z,21.97
2016-05-12T04:29:38.403Z,21.94
2016-05-12T04:30:38.452Z,21.92
2016-05-12T04:31:38.830Z,21.94
2016-05-12T04:32:38.536Z,21.99
2016-05-12T04:33:38.570Z,21.99
2016-05-12T04:34:38.463Z,21.94
2016-05-12T04:35:38.653Z,21.97
2016-05-12T04:36:38.703Z,21.9
2016-05-12T04:37:38.720Z,21.94
2016-05-12T04:38:38.771Z,21.92
2016-05-12T04:39:38.649Z,21.92
2016-05-12T04:40:38.854Z,21.94
2016-05-12T04:41:38.903Z,22.02
2016-05-12T04:42:38.938Z,21.97
2016-05-12T04:43:38.971Z,22
2016-05-12T04:44:39.006Z,21.97
2016-05-12T04:45:39.040Z,21.96
2016-05-12T04:46:39.386Z,21.94
2016-05-12T04:47:39.123Z,22.02
2016-05-12T04:48:39.172Z,22
2016-05-12T04:49:39.207Z,22
2016-05-12T04:50:39.084Z,21.93
2016-05-12T04:51:39.291Z,22.07
2016-05-12T04:52:39.324Z,22
2016-05-12T04:53:39.358Z,22.02
2016-05-12T04:54:39.391Z,22.04
2016-05-12T04:55:39.457Z,22.02
2016-05-12T04:56:39.319Z,22.04
2016-05-12T04:57:39.525Z,21.97
2016-05-12T04:58:39.559Z,22.07
2016-05-12T04:59:39.593Z,22.07
2016-05-12T05:00:39.643Z,22.04
2016-05-12T05:01:39.976Z,22.07
2016-05-12T05:02:39.726Z,22.04
2016-05-12T05:03:39.759Z,22.02
2016-05-12T05:04:39.654Z,21.96
2016-05-12T05:05:39.843Z,22.04
2016-05-12T05:06:39.878Z,22.09
2016-05-12T05:07:39.912Z,21.99
2016-05-12T05:08:39.961Z,22.05
2016-05-12T05:09:39.995Z,21.96
2016-05-12T05:10:40.044Z,21.99
2016-05-12T05:11:40.094Z,22.07
2016-05-12T05:12:40.112Z,22
2016-05-12T05:13:40.147Z,22.12
2016-05-12T05:14:40.195Z,22.08
2016-05-12T05:15:40.245Z,22.05
2016-05-12T05:16:40.828Z,22.11
2016-05-12T05:17:40.316Z,22.15
2016-05-12T05:18:40.350Z,22.15
2016-05-12T05:19:40.383Z,22.11
2016-05-12T05:20:40.433Z,22.15
2016-05-12T05:21:40.483Z,22.16
2016-05-12T05:22:40.516Z,22.14
2016-05-12T05:23:40.552Z,22.18
2016-05-12T05:24:40.600Z,22.12
2016-05-12T05:25:40.635Z,22.11
2016-05-12T05:26:40.684Z,22.11
2016-05-12T05:27:40.718Z,22.15
2016-05-12T05:28:40.595Z,22.2
2016-05-12T05:29:40.785Z,22.16
2016-05-12T05:30:40.835Z,22.23
2016-05-12T05:31:40.932Z,22.2
2016-05-12T05:32:40.918Z,22.15
2016-05-12T05:33:40.953Z,22.26
2016-05-12T05:34:40.987Z,22.14
2016-05-12T05:35:41.036Z,22.15
2016-05-12T05:36:40.914Z,22.18
2016-05-12T05:37:40.789Z,22.18
2016-05-12T05:38:41.154Z,22.18
2016-05-12T05:39:41.032Z,22.22
2016-05-12T05:40:41.237Z,22.23
2016-05-12T05:41:41.271Z,22.23
2016-05-12T05:42:41.320Z,22.23
2016-05-12T05:43:41.354Z,22.23
2016-05-12T05:44:41.389Z,22.23
2016-05-12T05:45:41.422Z,22.23
2016-05-12T05:46:41.331Z,22.27
2016-05-12T05:47:41.522Z,22.2
2016-05-12T05:48:41.539Z,22.29
2016-05-12T05:49:41.589Z,22.2
2016-05-12T05:50:41.639Z,22.23
2016-05-12T05:51:41.672Z,22.31
2016-05-12T05:52:41.566Z,22.27
2016-05-12T05:53:41.756Z,22.36
2016-05-12T05:54:41.790Z,22.27
2016-05-12T05:55:41.825Z,22.34
2016-05-12T05:56:41.890Z,22.33
2016-05-12T05:57:41.907Z,22.34
2016-05-12T05:58:41.941Z,22.29
2016-05-12T05:59:41.991Z,22.31
2016-05-12T06:00:42.026Z,22.04
2016-05-12T06:01:42.496Z,21.86
2016-05-12T06:02:42.109Z,21.67
2016-05-12T06:03:42.346Z,21.41
2016-05-12T06:04:42.193Z,21.33
2016-05-12T06:05:42.226Z,21.27
2016-05-12T06:06:42.260Z,21.15
2016-05-12T06:07:42.309Z,20.97
2016-05-12T06:08:42.343Z,20.85
2016-05-12T06:09:42.392Z,20.76
2016-05-12T06:10:42.256Z,20.67
2016-05-12T06:11:42.305Z,20.58
2016-05-12T06:12:42.511Z,20.51
2016-05-12T06:13:42.372Z,20.38
2016-05-12T06:14:42.578Z,20.4
2016-05-12T06:15:42.472Z,20.3
2016-05-12T06:16:42.662Z,20.25
2016-05-12T06:17:42.539Z,20.23
2016-05-12T06:18:42.745Z,20
2016-05-12T06:19:42.780Z,20.12
2016-05-12T06:20:42.813Z,20
2016-05-12T06:21:42.691Z,19.95
2016-05-12T06:22:42.741Z,19.85
2016-05-12T06:23:42.774Z,19.8
2016-05-12T06:24:42.980Z,19.8
2016-05-12T06:25:43.014Z,19.72
2016-05-12T06:26:43.049Z,19.74
2016-05-12T06:27:43.098Z,19.82
2016-05-12T06:28:43.132Z,19.79
2016-05-12T06:29:43.166Z,19.8
2016-05-12T06:30:43.199Z,19.79
2016-05-12T06:31:42.937Z,19.79
2016-05-12T06:32:43.282Z,19.79
2016-05-12T06:33:43.318Z,19.83
2016-05-12T06:34:43.367Z,19.83
2016-05-12T06:35:43.400Z,19.86
2016-05-12T06:36:43.435Z,19.72
2016-05-12T06:37:43.484Z,19.85
2016-05-12T06:38:43.534Z,19.79
2016-05-12T06:39:43.396Z,19.83
2016-05-12T06:40:43.587Z,19.85
2016-05-12T06:41:43.620Z,19.87
2016-05-12T06:42:43.685Z,20.07
2016-05-12T06:43:43.703Z,20.18
2016-05-12T06:44:43.753Z,20.37
2016-05-12T06:45:43.772Z,20.4
2016-05-12T06:46:44.320Z,20.51
2016-05-12T06:47:43.870Z,20.68
2016-05-12T06:48:43.904Z,20.79
2016-05-12T06:49:43.981Z,20.91
2016-05-12T06:50:44.058Z,20.91
2016-05-12T06:51:44.134Z,21
2016-05-12T06:52:44.227Z,21.18
2016-05-12T06:53:44.148Z,21.25
2016-05-12T06:54:44.354Z,21.3
2016-05-12T06:55:44.435Z,21.34
2016-05-12T06:56:44.468Z,21.49
2016-05-12T06:57:44.517Z,21.41
2016-05-12T06:58:44.582Z,21.58
2016-05-12T06:59:44.621Z,21.61
2016-05-12T07:00:44.505Z,21.66
2016-05-12T07:01:44.559Z,21.68
2016-05-12T07:02:44.756Z,21.62
2016-05-12T07:03:44.794Z,21.74
2016-05-12T07:04:44.877Z,21.82
2016-05-12T07:05:44.726Z,21.71
2016-05-12T07:06:44.918Z,21.85
2016-05-12T07:07:44.969Z,21.86
2016-05-12T07:08:44.849Z,21.93
2016-05-12T07:09:45.056Z,21.89
2016-05-12T07:10:45.122Z,21.93
2016-05-12T07:11:44.968Z,21.94
2016-05-12T07:12:45.175Z,22.02
2016-05-12T07:13:45.210Z,22.02
2016-05-12T07:14:45.088Z,22
2016-05-12T07:15:45.294Z,22.09
2016-05-12T07:16:45.547Z,22.08
2016-05-12T07:17:45.362Z,22.15
2016-05-12T07:18:45.397Z,22.15
2016-05-12T07:19:45.290Z,22.18
2016-05-12T07:20:45.495Z,22.27
2016-05-12T07:21:45.530Z,22.27
2016-05-12T07:22:45.580Z,22.29
2016-05-12T07:23:45.442Z,22.3
2016-05-12T07:24:45.492Z,22.31
2016-05-12T07:25:45.681Z,22.27
2016-05-12T07:26:45.715Z,22.33
2016-05-12T07:27:45.609Z,22.3
2016-05-12T07:28:45.799Z,22.29
2016-05-12T07:29:45.833Z,22.26
2016-05-12T07:30:45.898Z,21.99
2016-05-12T07:31:45.916Z,21.92
2016-05-12T07:32:45.982Z,21.82
2016-05-12T07:33:45.844Z,21.7
2016-05-12T07:34:46.065Z,21.62
2016-05-12T07:35:45.927Z,21.59
2016-05-12T07:36:46.118Z,21.46
2016-05-12T07:37:46.166Z,21.36
2016-05-12T07:38:46.201Z,21.27
2016-05-12T07:39:46.235Z,21.3
2016-05-12T07:40:46.285Z,21.28
2016-05-12T07:41:46.177Z,21.31
2016-05-12T07:42:46.352Z,21.23
2016-05-12T07:43:46.386Z,21.22
2016-05-12T07:44:46.436Z,21.22
2016-05-12T07:45:46.470Z,21.25
2016-05-12T07:46:46.520Z,21.25
2016-05-12T07:47:46.553Z,21.27
2016-05-12T07:48:46.603Z,21.27
2016-05-12T07:49:46.637Z,21.22
2016-05-12T07:50:46.670Z,21.23
2016-05-12T07:51:46.705Z,21.22
2016-05-12T07:52:46.754Z,21.22
2016-05-12T07:53:46.789Z,21.27
2016-05-12T07:54:46.822Z,21.25
2016-05-12T07:55:46.872Z,21.34
2016-05-12T07:56:46.750Z,21.28
2016-05-12T07:57:46.783Z,21.28
2016-05-12T07:58:46.989Z,21.34
2016-05-12T07:59:47.038Z,21.31
2016-05-12T08:00:47.057Z,21.25
2016-05-12T08:01:46.794Z,21.33
2016-05-12T08:02:47.156Z,21.36
2016-05-12T08:03:47.174Z,21.3
2016-05-12T08:04:47.083Z,21.3
2016-05-12T08:05:47.258Z,21.31
2016-05-12T08:06:47.292Z,21.3
2016-05-12T08:07:47.341Z,21.34
2016-05-12T08:08:47.390Z,21.22
2016-05-12T08:09:47.410Z,21.33
2016-05-12T08:10:47.460Z,21.25
2016-05-12T08:11:47.508Z,21.22
2016-05-12T08:12:47.543Z,21.36
2016-05-12T08:13:47.576Z,21.31
2016-05-12T08:14:47.610Z,21.36
2016-05-12T08:15:47.644Z,21.38
2016-05-12T08:16:48.396Z,21.43
2016-05-12T08:17:47.744Z,21.41
2016-05-12T08:18:47.777Z,21.43
2016-05-12T08:19:47.811Z,21.61
2016-05-12T08:20:47.705Z,21.56
2016-05-12T08:21:47.910Z,21.58
2016-05-12T08:22:47.772Z,21.62
2016-05-12T08:23:47.978Z,21.67
2016-05-12T08:24:47.856Z,21.76
2016-05-12T08:25:47.889Z,21.7
2016-05-12T08:26:48.080Z,21.67
2016-05-12T08:27:47.973Z,21.73
2016-05-12T08:28:48.163Z,21.58
2016-05-12T08:29:48.213Z,21.61
2016-05-12T08:31:02.481Z,21.59
2016-05-12T08:31:48.000Z,21.68
2016-05-12T08:32:48.315Z,21.64
2016-05-12T08:33:48.365Z,21.64
2016-05-12T08:34:48.258Z,21.77
2016-05-12T08:35:48.448Z,21.83
2016-05-12T08:36:48.341Z,21.83
2016-05-12T08:37:48.532Z,21.92
2016-05-12T08:38:48.550Z,22
2016-05-12T08:39:48.599Z,21.99
2016-05-12T08:40:48.493Z,22.12
2016-05-12T08:41:48.542Z,22.27
2016-05-12T08:42:48.576Z,22.29
2016-05-12T08:43:48.610Z,22.31
2016-05-12T08:44:48.801Z,22.34
2016-05-12T08:45:48.834Z,22.45
2016-05-12T08:46:49.071Z,22.45
2016-05-12T08:47:48.918Z,22.49
2016-05-12T08:48:48.811Z,22.49
2016-05-12T08:49:49.001Z,22.59
2016-05-12T08:50:49.051Z,22.59
2016-05-12T08:51:49.069Z,22.61
2016-05-12T08:52:49.118Z,22.63
2016-05-12T08:53:49.168Z,22.63
2016-05-12T08:54:49.217Z,22.7
2016-05-12T08:55:49.237Z,22.69
2016-05-12T08:56:49.286Z,22.7
2016-05-12T08:57:49.303Z,22.66
2016-05-12T08:58:49.214Z,22.73
2016-05-12T08:59:49.387Z,22.78
2016-05-12T09:00:49.421Z,22.78
2016-05-12T09:01:49.487Z,22.78
2016-05-12T09:02:49.536Z,22.73
2016-05-12T09:03:49.570Z,22.81
2016-05-12T09:04:49.604Z,22.79
2016-05-12T09:05:49.638Z,22.82
2016-05-12T09:06:51.813Z,22.91
2016-05-12T09:07:49.737Z,22.86
2016-05-12T09:08:51.005Z,22.84
2016-05-12T09:09:49.789Z,22.81
2016-05-12T09:10:49.839Z,22.94
2016-05-12T09:11:49.732Z,22.99
2016-05-12T09:12:49.922Z,22.97
2016-05-12T09:13:49.956Z,22.97
2016-05-12T09:14:50.007Z,22.99
2016-05-12T09:15:50.040Z,23
2016-05-12T09:16:50.402Z,22.97
2016-05-12T09:17:49.952Z,23.01
2016-05-12T09:18:50.001Z,22.99
2016-05-12T09:19:50.191Z,23.03
2016-05-12T09:20:50.085Z,23.06
2016-05-12T09:21:50.275Z,23.14
2016-05-12T09:22:50.168Z,23.07
2016-05-12T09:23:50.358Z,23.07
2016-05-12T09:24:50.392Z,23.04
2016-05-12T09:25:50.442Z,23.04
2016-05-12T09:26:50.319Z,23.19
2016-05-12T09:27:50.541Z,23.1
2016-05-12T09:28:50.575Z,23.19
2016-05-12T09:29:50.593Z,23.16
2016-05-12T09:30:50.486Z,23.1
2016-05-12T09:31:50.755Z,23.18
2016-05-12T09:32:50.570Z,23.18
2016-05-12T09:33:50.760Z,23.16
2016-05-12T09:34:50.794Z,23.22
2016-05-12T09:35:50.703Z,23.19
2016-05-12T09:36:50.878Z,23.19
2016-05-12T09:37:50.927Z,23.24
2016-05-12T09:38:50.805Z,23.25
2016-05-12T09:39:51.027Z,23.25
2016-05-12T09:40:51.044Z,23.24
2016-05-12T09:41:51.079Z,23.28
2016-05-12T09:42:51.143Z,23.35
2016-05-12T09:43:51.162Z,23.24
2016-05-12T09:44:51.212Z,23.26
2016-05-12T09:45:51.245Z,23.35
2016-05-12T09:46:51.483Z,23.34
2016-05-12T09:47:51.173Z,23.32
2016-05-12T09:48:51.379Z,23.34
2016-05-12T09:49:51.413Z,23.28
2016-05-12T09:50:51.462Z,23.25
2016-05-12T09:51:51.512Z,23.34
2016-05-12T09:52:51.529Z,23.34
2016-05-12T09:53:51.564Z,23.35
2016-05-12T09:54:51.457Z,23.48
2016-05-12T09:55:51.663Z,23.38
2016-05-12T09:56:51.681Z,23.45
2016-05-12T09:57:51.606Z,23.45
2016-05-12T09:58:51.624Z,23.47
2016-05-12T09:59:51.658Z,23.47
2016-05-12T10:00:51.880Z,23.42
2016-05-12T10:01:52.303Z,23.47
2016-05-12T10:02:51.948Z,23.42
2016-05-12T10:03:51.982Z,23.44
2016-05-12T10:04:51.875Z,23.44
2016-05-12T10:05:51.909Z,23.42
2016-05-12T10:06:52.099Z,23.44
2016-05-12T10:07:52.133Z,23.5
2016-05-12T10:08:52.183Z,23.52
2016-05-12T10:09:52.060Z,23.53
2016-05-12T10:10:52.266Z,23.44
2016-05-12T10:11:52.299Z,23.57
2016-05-12T10:12:52.349Z,23.44
2016-05-12T10:13:52.383Z,23.42
2016-05-12T10:14:52.417Z,23.59
2016-05-12T10:15:52.482Z,23.6
2016-05-12T10:16:52.360Z,23.57
2016-05-12T10:17:52.551Z,23.66
2016-05-12T10:18:52.429Z,23.6
2016-05-12T10:19:52.634Z,23.71
2016-05-12T10:20:52.684Z,23.75
2016-05-12T10:21:52.701Z,23.79
2016-05-12T10:22:52.752Z,23.77
2016-05-12T10:23:52.801Z,23.82
2016-05-12T10:24:52.851Z,23.81
2016-05-12T10:25:52.900Z,23.72
2016-05-12T10:26:52.918Z,23.79
2016-05-12T10:27:52.953Z,23.75
2016-05-12T10:28:53.001Z,23.78
2016-05-12T10:29:53.036Z,23.78
2016-05-12T10:30:53.069Z,23.81
2016-05-12T10:31:53.134Z,23.81
2016-05-12T10:32:53.013Z,23.78
2016-05-12T10:33:53.499Z,23.81
2016-05-12T10:34:53.096Z,23.84
2016-05-12T10:35:53.286Z,23.82
2016-05-12T10:36:53.320Z,23.9
2016-05-12T10:37:53.214Z,23.94
2016-05-12T10:38:53.403Z,23.93
2016-05-12T10:39:53.453Z,23.93
2016-05-12T10:40:53.330Z,24
2016-05-12T10:41:53.536Z,24.03
2016-05-12T10:42:53.586Z,24.07
2016-05-12T10:43:53.605Z,23.96
2016-05-12T10:44:53.654Z,23.97
2016-05-12T10:45:53.688Z,23.96
2016-05-12T10:46:53.988Z,23.94
2016-05-12T10:47:53.772Z,23.96
2016-05-12T10:48:53.821Z,23.96
2016-05-12T10:49:53.854Z,23.99
2016-05-12T10:50:53.921Z,24
2016-05-12T10:51:53.955Z,23.96
2016-05-12T10:52:53.816Z,24.03
2016-05-12T10:53:53.866Z,24.04
2016-05-12T10:54:54.056Z,24.09
2016-05-12T10:55:54.090Z,24.08
2016-05-12T10:56:53.843Z,24.07
2016-05-12T10:57:54.174Z,24.21
2016-05-12T10:58:54.207Z,24.21
2016-05-12T10:59:54.256Z,24.22
2016-05-12T11:00:54.306Z,24.19
2016-05-12T11:01:54.623Z,24.27
2016-05-12T11:02:54.389Z,24.27
2016-05-12T11:03:54.424Z,24.3
2016-05-12T11:04:54.473Z,24.4
2016-05-12T11:05:54.523Z,24.44
2016-05-12T11:06:54.542Z,24.48
2016-05-12T11:07:54.436Z,24.49
2016-05-12T11:08:54.312Z,24.61
2016-05-12T11:09:54.659Z,24.58
2016-05-12T11:10:54.709Z,24.69
2016-05-12T11:11:54.742Z,24.78
2016-05-12T11:12:54.792Z,24.74
2016-05-12T11:13:54.826Z,24.77
2016-05-12T11:14:54.875Z,24.77
2016-05-12T11:15:54.910Z,24.75
2016-05-12T11:16:55.146Z,24.78
2016-05-12T11:17:54.837Z,24.78
2016-05-12T11:18:55.043Z,24.67
2016-05-12T11:19:55.076Z,24.66
2016-05-12T11:20:55.126Z,24.52
2016-05-12T11:21:55.191Z,24.56
2016-05-12T11:22:55.209Z,24.52
2016-05-12T11:23:55.087Z,24.56
2016-05-12T11:24:55.293Z,24.59
2016-05-12T11:25:55.327Z,24.66
2016-05-12T11:26:55.361Z,24.61
2016-05-12T11:27:55.410Z,24.7
2016-05-12T11:28:55.445Z,24.75
2016-05-12T11:29:55.495Z,24.77
2016-05-12T11:30:55.543Z,24.93
2016-05-12T11:31:55.702Z,25.02
2016-05-12T11:32:55.612Z,25.09
2016-05-12T11:33:55.661Z,25.2
2016-05-12T11:34:55.710Z,25.23
2016-05-12T11:35:55.589Z,25.2
2016-05-12T11:36:55.778Z,25.34
2016-05-12T11:37:55.828Z,25.37
2016-05-12T11:38:55.861Z,25.37
2016-05-12T11:39:55.897Z,25.3
2016-05-12T11:40:55.945Z,25.23
2016-05-12T11:41:55.838Z,25.22
2016-05-12T11:42:56.030Z,25.24
2016-05-12T11:43:56.078Z,25.32
2016-05-12T11:44:55.956Z,25.3
2016-05-12T11:45:56.147Z,25.27
2016-05-12T11:46:56.383Z,25.23
2016-05-12T11:47:56.089Z,25.15
2016-05-12T11:48:56.279Z,25.08
2016-05-12T11:49:56.314Z,25.02
2016-05-12T11:50:56.363Z,25.04
2016-05-12T11:51:56.396Z,25
2016-05-12T11:52:56.462Z,25.01
2016-05-12T11:53:56.324Z,25
2016-05-12T11:54:56.390Z,25.09
2016-05-12T11:55:56.579Z,25.26
2016-05-12T11:56:56.613Z,25.48
2016-05-12T11:57:56.648Z,25.56
2016-05-12T11:58:56.525Z,25.67
2016-05-12T11:59:56.731Z,25.76
2016-05-12T12:00:56.781Z,25.86
2016-05-12T12:01:56.815Z,26.03
2016-05-12T12:02:56.849Z,26.09
2016-05-12T12:03:56.914Z,26.07
2016-05-12T12:04:56.806Z,26
2016-05-12T12:05:56.825Z,25.89
2016-05-12T12:06:57.031Z,25.76
2016-05-12T12:07:57.064Z,25.69
2016-05-12T12:08:56.943Z,25.63
2016-05-12T12:09:56.992Z,25.49
2016-05-12T12:10:57.025Z,25.52
2016-05-12T12:11:57.232Z,25.52
2016-05-12T12:12:57.266Z,25.41
2016-05-12T12:13:57.315Z,25.51
2016-05-12T12:14:57.427Z,25.94
2016-05-12T12:15:57.399Z,26.35
2016-05-12T12:16:57.292Z,26.79
2016-05-12T12:17:57.483Z,27.23
2016-05-12T12:18:57.516Z,27.41
2016-05-12T12:19:57.566Z,27.38
2016-05-12T12:20:57.599Z,27.11
2016-05-12T12:21:57.650Z,27
2016-05-12T12:22:57.527Z,26.71
2016-05-12T12:23:57.749Z,26.71
2016-05-12T12:24:57.798Z,26.84
2016-05-12T12:25:57.660Z,27.01
2016-05-12T12:26:57.851Z,27.38
2016-05-12T12:27:57.884Z,27.64
2016-05-12T12:28:57.949Z,28.09
2016-05-12T12:29:57.983Z,28.31
2016-05-12T12:30:58.033Z,28.65
2016-05-12T12:31:58.427Z,28.91
2016-05-12T12:32:58.101Z,29.2
2016-05-12T12:33:57.837Z,29.38
2016-05-12T12:34:57.887Z,29.52
2016-05-12T12:35:58.234Z,29.21
2016-05-12T12:36:58.268Z,28.85
2016-05-12T12:37:58.318Z,28.51
2016-05-12T12:38:58.351Z,28.39
2016-05-12T12:39:58.401Z,28.21
2016-05-12T12:40:58.451Z,28.11
2016-05-12T12:41:58.500Z,27.81
2016-05-12T12:42:58.519Z,27.53
2016-05-12T12:43:58.568Z,27.55
2016-05-12T12:44:58.305Z,27.93
2016-05-12T12:45:58.667Z,28.42
2016-05-12T12:46:58.997Z,28.86
2016-05-12T12:47:58.735Z,29.36
2016-05-12T12:48:58.784Z,29.77
2016-05-12T12:49:58.819Z,30.19
2016-05-12T12:50:58.852Z,30.51
2016-05-12T12:51:58.902Z,30.64
2016-05-12T12:52:59.030Z,30.77
2016-05-12T12:53:59.016Z,30.84
2016-05-12T12:54:58.894Z,31.06
2016-05-12T12:55:59.647Z,31.37
2016-05-12T12:56:59.104Z,31.52